Time;durP1;ratioP1;P1;durP2;ratioP2;P2;SDS_P1;SDS_P2;PMS_P1;PMS_P2;Temp;Humidity;BMP_temperature;BMP_pressure;BME280_temperature;BME280_humidity;BME280_pressure;Samples;Min_cycle;Max_cycle;Signal;HPM_P1;HPM_P2
2022/01/28 00:01:19;;;;;;;21.65;3.00;;;4.90;99.90;;;;;;6305938;22;20022;-73
2022/01/28 00:03:44;;;;;;;16.45;3.30;;;4.80;99.90;;;;;;6305929;22;20018;-73
2022/01/28 00:06:10;;;;;;;18.45;3.08;;;4.70;99.90;;;;;;6305958;22;20019;-73
2022/01/28 00:08:36;;;;;;;14.88;3.00;;;4.70;99.90;;;;;;6304965;22;20022;-73
2022/01/28 00:11:01;;;;;;;14.48;2.95;;;4.70;99.90;;;;;;6333758;22;20019;-73
2022/01/28 00:13:39;;;;;;;23.92;3.08;;;4.60;99.90;;;;;;6304957;22;20019;-73
2022/01/28 00:16:44;;;;;;;20.63;3.20;;;4.60;99.90;;;;;;6305799;22;20438;-73
2022/01/28 00:38:36;;;;;;;18.63;2.75;;;4.60;99.90;;;;;;6307357;22;20010;-72
2022/01/28 00:41:03;;;;;;;16.77;2.78;;;4.60;99.90;;;;;;6255761;22;20064;-72
2022/01/28 00:43:28;;;;;;;12.10;2.40;;;4.60;99.90;;;;;;6307027;22;20362;-73
2022/01/28 00:45:55;;;;;;;17.05;2.95;;;4.60;99.90;;;;;;6306776;22;20034;-73
2022/01/28 00:48:21;;;;;;;18.27;3.42;;;4.70;99.90;;;;;;6307728;22;20018;-73
2022/01/28 00:50:47;;;;;;;13.32;2.65;;;4.60;99.90;;;;;;6334647;22;20015;-73
2022/01/28 00:53:13;;;;;;;14.60;2.80;;;4.60;99.90;;;;;;6307820;22;20136;-73
2022/01/28 00:55:39;;;;;;;19.50;3.00;;;4.70;99.90;;;;;;6306913;22;20022;-73
2022/01/28 00:58:04;;;;;;;23.08;4.00;;;4.60;99.90;;;;;;6306930;22;20015;-73
2022/01/28 01:00:31;;;;;;;20.73;3.80;;;4.70;99.90;;;;;;6306889;22;20094;-72
2022/01/28 01:02:57;;;;;;;21.60;4.13;;;4.70;99.90;;;;;;6258317;22;20011;-72
2022/01/28 01:05:23;;;;;;;32.80;3.65;;;4.70;99.90;;;;;;6337333;22;20442;-72
2022/01/28 01:07:49;;;;;;;18.02;3.33;;;4.60;99.90;;;;;;6337948;22;20011;-73
2022/01/28 01:10:15;;;;;;;24.13;3.65;;;4.60;99.90;;;;;;6309341;22;20481;-72
2022/01/28 01:12:44;;;;;;;20.95;3.50;;;4.60;99.90;;;;;;6308604;22;20018;-72
2022/01/28 01:15:14;;;;;;;29.17;4.00;;;4.60;99.90;;;;;;6310273;22;20473;-72
2022/01/28 01:17:47;;;;;;;21.10;3.63;;;4.50;99.90;;;;;;6336695;22;20011;-72
2022/01/28 01:23:06;;;;;;;26.02;3.90;;;4.50;99.90;;;;;;6337298;22;20013;-72
2022/01/28 01:25:42;;;;;;;22.42;4.15;;;4.50;99.90;;;;;;6336805;22;20093;-73
2022/01/28 01:28:09;;;;;;;29.35;3.83;;;4.60;99.90;;;;;;6309291;22;20007;-72
2022/01/28 01:30:39;;;;;;;17.08;3.17;;;4.60;99.90;;;;;;6308891;22;20446;-72
2022/01/28 01:33:05;;;;;;;27.08;4.07;;;4.60;99.90;;;;;;6308599;22;20042;-71
2022/01/28 01:35:32;;;;;;;25.85;3.58;;;4.60;99.90;;;;;;6307286;22;20015;-72
2022/01/28 01:37:59;;;;;;;23.85;3.72;;;4.60;99.90;;;;;;6304735;22;20021;-72
2022/01/28 01:40:30;;;;;;;15.02;2.60;;;4.60;99.90;;;;;;6304758;22;20014;-73
2022/01/28 01:43:09;;;;;;;26.38;3.53;;;4.70;99.90;;;;;;6304423;22;20053;-73
2022/01/28 01:53:37;;;;;;;20.27;3.67;;;4.70;99.90;;;;;;6303866;22;20018;-73
2022/01/28 01:56:03;;;;;;;14.65;2.78;;;4.70;99.90;;;;;;6303261;22;20037;-73
2022/01/28 01:58:30;;;;;;;21.75;3.30;;;4.80;99.90;;;;;;6306470;22;20014;-73
2022/01/28 02:01:01;;;;;;;14.25;2.83;;;4.80;99.90;;;;;;6305830;22;20081;-73
2022/01/28 02:03:28;;;;;;;16.70;3.25;;;4.70;99.90;;;;;;6305664;22;20022;-73
2022/01/28 02:05:57;;;;;;;18.58;2.72;;;4.80;99.90;;;;;;6306371;22;20082;-73
2022/01/28 02:08:25;;;;;;;17.65;3.00;;;4.80;99.90;;;;;;6306318;22;20041;-73
2022/01/28 02:10:50;;;;;;;22.20;3.42;;;4.80;99.90;;;;;;6333489;22;20022;-73
2022/01/28 02:13:16;;;;;;;18.17;3.05;;;4.70;99.90;;;;;;6306948;22;20442;-73
2022/01/28 02:15:41;;;;;;;15.60;2.88;;;4.80;99.90;;;;;;6306756;22;20022;-73
2022/01/28 02:18:07;;;;;;;20.65;3.30;;;4.90;99.90;;;;;;6307505;22;20049;-73
2022/01/28 02:20:36;;;;;;;17.05;3.40;;;4.80;99.90;;;;;;6306022;22;20337;-73
2022/01/28 02:23:03;;;;;;;16.17;3.30;;;4.80;99.90;;;;;;6307168;22;20015;-73
2022/01/28 02:25:31;;;;;;;21.13;3.35;;;4.90;99.90;;;;;;6306994;22;20015;-73
2022/01/28 02:28:04;;;;;;;20.25;2.95;;;4.80;99.90;;;;;;6306823;22;20334;-73
2022/01/28 02:30:31;;;;;;;26.98;5.30;;;4.80;99.90;;;;;;6306362;22;20089;-73
2022/01/28 02:33:02;;;;;;;19.27;3.03;;;4.70;99.90;;;;;;6306448;22;20011;-73
2022/01/28 02:35:28;;;;;;;20.92;3.33;;;4.70;99.90;;;;;;6306401;22;20556;-73
2022/01/28 02:37:54;;;;;;;21.98;3.67;;;4.70;99.90;;;;;;6306512;22;20018;-73
2022/01/28 02:40:20;;;;;;;21.80;3.13;;;4.60;99.90;;;;;;6306470;22;20014;-73
2022/01/28 02:42:54;;;;;;;19.52;3.05;;;4.70;99.90;;;;;;6306408;22;20014;-73
2022/01/28 02:45:27;;;;;;;17.83;2.88;;;4.70;99.90;;;;;;6306370;22;20036;-73
2022/01/28 02:48:00;;;;;;;18.83;2.88;;;4.70;99.90;;;;;;6306173;22;20011;-73
2022/01/28 02:50:29;;;;;;;16.85;3.33;;;4.80;99.90;;;;;;6304920;22;20015;-73
2022/01/28 02:53:07;;;;;;;14.90;2.85;;;4.70;99.90;;;;;;6305405;22;20010;-73
2022/01/28 02:55:38;;;;;;;16.00;3.38;;;4.70;99.90;;;;;;6305955;22;20030;-73
2022/01/28 02:58:22;;;;;;;19.77;3.53;;;4.70;99.90;;;;;;6305449;22;20018;-72
2022/01/28 03:00:49;;;;;;;18.88;3.10;;;4.70;99.90;;;;;;6306699;22;20019;-72
2022/01/28 03:03:18;;;;;;;16.85;3.17;;;4.60;99.90;;;;;;6306707;22;20015;-72
2022/01/28 03:05:45;;;;;;;21.60;3.65;;;4.50;99.90;;;;;;6306615;22;20085;-72
2022/01/28 03:08:12;;;;;;;15.27;3.50;;;4.40;99.90;;;;;;6334981;22;20007;-72
2022/01/28 03:15:34;;;;;;;25.75;3.45;;;4.30;99.90;;;;;;6306117;22;20103;-72
2022/01/28 03:18:18;;;;;;;17.25;2.90;;;4.30;99.90;;;;;;6305571;22;20015;-72
2022/01/28 03:23:18;;;;;;;18.85;3.22;;;4.20;99.90;;;;;;6306237;22;20084;-73
2022/01/28 03:25:45;;;;;;;24.27;3.50;;;4.10;99.90;;;;;;6306373;22;20490;-73
2022/01/28 03:28:12;;;;;;;27.00;3.75;;;4.20;99.90;;;;;;6254967;22;20011;-72
2022/01/28 03:30:38;;;;;;;23.67;3.42;;;4.20;99.90;;;;;;6306242;22;20015;-72
2022/01/28 03:33:04;;;;;;;19.00;3.45;;;4.20;99.90;;;;;;6306739;22;20037;-72
2022/01/28 03:35:32;;;;;;;27.25;3.47;;;4.30;99.90;;;;;;6307075;22;20018;-72
2022/01/28 03:38:00;;;;;;;21.33;3.50;;;4.40;99.90;;;;;;6279560;22;20018;-72
2022/01/28 03:40:26;;;;;;;25.92;4.82;;;4.40;99.90;;;;;;6333552;22;20038;-72
2022/01/28 03:42:52;;;;;;;22.30;3.67;;;4.40;99.90;;;;;;6334343;22;20068;-73
2022/01/28 03:45:18;;;;;;;21.90;3.20;;;4.40;99.90;;;;;;6305867;22;20019;-71
2022/01/28 03:47:43;;;;;;;26.48;4.57;;;4.40;99.90;;;;;;6303696;22;20011;-73
2022/01/28 03:50:09;;;;;;;29.38;4.68;;;4.40;99.90;;;;;;6305563;22;20015;-72
2022/01/28 03:52:35;;;;;;;30.08;3.63;;;4.50;99.90;;;;;;6305659;22;20488;-73
2022/01/28 03:55:01;;;;;;;27.30;3.80;;;4.50;99.90;;;;;;6305671;22;20086;-72
2022/01/28 03:57:27;;;;;;;26.90;4.20;;;4.50;99.90;;;;;;6305421;22;20068;-73
2022/01/28 03:59:52;;;;;;;27.30;4.57;;;4.40;99.90;;;;;;6305201;22;20015;-73
2022/01/28 04:02:21;;;;;;;32.97;4.22;;;4.50;99.90;;;;;;6305424;22;20023;-73
2022/01/28 04:12:51;;;;;;;28.48;4.45;;;4.30;99.90;;;;;;6306913;22;20076;-73
2022/01/28 04:17:46;;;;;;;26.30;4.32;;;4.20;99.90;;;;;;6306011;22;20087;-70
2022/01/28 04:20:12;;;;;;;33.17;5.80;;;4.20;99.90;;;;;;6305350;22;20355;-71
2022/01/28 04:22:37;;;;;;;34.88;6.40;;;4.20;99.90;;;;;;6307317;22;20025;-72
2022/01/28 04:25:04;;;;;;;31.00;4.90;;;4.30;99.90;;;;;;6307708;22;20002;-73
2022/01/28 04:27:29;;;;;;;33.47;4.78;;;4.30;99.90;;;;;;6307895;22;20114;-73
2022/01/28 04:29:55;;;;;;;25.27;4.28;;;4.30;99.90;;;;;;6307192;22;20486;-73
2022/01/28 04:32:23;;;;;;;27.55;4.30;;;4.30;99.90;;;;;;6334840;22;20046;-73
2022/01/28 04:34:48;;;;;;;25.42;4.32;;;4.40;99.90;;;;;;6307671;22;20018;-73
2022/01/28 04:37:24;;;;;;;27.98;4.60;;;4.40;99.90;;;;;;6307406;22;20019;-71
2022/01/28 04:42:33;;;;;;;35.72;4.85;;;4.50;99.90;;;;;;6302311;22;20018;-72
2022/01/28 04:45:08;;;;;;;24.15;3.45;;;4.50;99.90;;;;;;6301847;22;20016;-73
2022/01/28 04:47:45;;;;;;;29.33;4.35;;;4.50;99.90;;;;;;6301868;22;20045;-73
2022/01/28 04:50:56;;;;;;;32.63;5.30;;;4.50;99.90;;;;;;6300960;22;20025;-72
2022/01/28 04:58:46;;;;;;;30.50;4.20;;;4.60;99.90;;;;;;6302025;22;20015;-73
2022/01/28 05:25:08;;;;;;;27.33;4.63;;;4.70;99.90;;;;;;6301978;22;20439;-73
2022/01/28 05:27:39;;;;;;;20.35;4.05;;;4.60;99.90;;;;;;6301761;22;20069;-73
2022/01/28 05:30:06;;;;;;;26.45;3.92;;;4.60;99.90;;;;;;6301218;22;20045;-73
2022/01/28 05:32:32;;;;;;;34.83;4.45;;;4.50;99.90;;;;;;6301946;22;20459;-73
2022/01/28 05:34:57;;;;;;;29.33;4.22;;;4.50;99.90;;;;;;6302151;22;20013;-73
2022/01/28 05:37:23;;;;;;;29.02;4.60;;;4.50;99.90;;;;;;6301707;22;20447;-73
2022/01/28 05:39:49;;;;;;;32.40;4.80;;;4.50;99.90;;;;;;6302283;22;20012;-72
2022/01/28 05:42:14;;;;;;;32.20;4.82;;;4.50;99.90;;;;;;6276855;22;20007;-72
2022/01/28 05:44:40;;;;;;;28.60;4.60;;;4.50;99.90;;;;;;6301202;22;20030;-72
2022/01/28 05:47:06;;;;;;;32.45;4.78;;;4.50;99.90;;;;;;6301990;22;20011;-72
2022/01/28 05:49:32;;;;;;;28.33;4.45;;;4.50;99.90;;;;;;6300379;22;20021;-72
2022/01/28 05:55:38;;;;;;;;;;;;;;;;;;;;;
2022/01/28 05:59:14;;;;;;;26.00;4.15;;;4.50;99.90;;;;;;6284941;22;20107;-75
2022/01/28 06:02:18;;;;;;;;;;;4.50;99.90;;;;;;6333342;22;20079;-75
2022/01/28 06:06:18;;;;;;;;;;;;;;;;;;;;;
2022/01/28 06:09:53;;;;;;;26.17;4.43;;;4.40;99.90;;;;;;6202359;23;20039;-75
2022/01/28 06:12:56;;;;;;;28.33;4.15;;;4.40;99.90;;;;;;6170693;23;20040;-75
2022/01/28 06:15:25;;;;;;;27.88;5.13;;;4.30;99.90;;;;;;6181323;23;20051;-75
2022/01/28 06:18:29;;;;;;;23.27;4.22;;;4.30;99.90;;;;;;6207772;23;20013;-75
2022/01/28 06:21:04;;;;;;;27.27;4.85;;;4.10;99.90;;;;;;6277401;22;20097;-75
2022/01/28 06:24:15;;;;;;;29.58;4.90;;;4.10;99.90;;;;;;6306389;22;20014;-75
2022/01/28 06:27:27;;;;;;;31.45;4.40;;;4.00;99.90;;;;;;6281818;22;20013;-75
2022/01/28 06:30:20;;;;;;;22.63;4.50;;;3.90;99.90;;;;;;6330699;22;20039;-75
2022/01/28 06:33:33;;;;;;;28.67;4.55;;;3.90;99.90;;;;;;6306806;22;20554;-75
2022/01/28 06:37:03;;;;;;;23.92;4.57;;;3.80;99.90;;;;;;6302398;22;20014;-74
2022/01/28 06:40:07;;;;;;;30.90;4.72;;;3.90;99.90;;;;;;6302604;22;20022;-74
2022/01/28 06:42:41;;;;;;;29.25;4.57;;;3.80;99.90;;;;;;6306629;22;20018;-75
2022/01/28 06:45:25;;;;;;;30.77;4.50;;;3.80;99.90;;;;;;6306008;22;20011;-75
2022/01/28 06:48:10;;;;;;;36.33;5.53;;;3.70;99.90;;;;;;6306349;22;20064;-75
2022/01/28 06:51:37;;;;;;;;;;;;;;;;;;;;;
2022/01/28 06:59:13;;;;;;;40.42;6.13;;;3.80;99.90;;;;;;6134542;23;20197;-75
2022/01/28 07:02:19;;;;;;;30.88;4.40;;;3.90;99.90;;;;;;6211540;22;20098;-75
2022/01/28 07:17:30;;;;;;;30.52;4.70;;;4.10;99.90;;;;;;6108438;23;20048;-75
2022/01/28 07:30:18;;;;;;;33.30;4.45;;;4.00;99.90;;;;;;5917233;24;20383;-74
2022/01/28 07:32:51;;;;;;;33.67;4.40;;;4.00;99.90;;;;;;5931517;23;20016;-75
2022/01/28 07:36:09;;;;;;;28.38;4.68;;;3.90;99.90;;;;;;6116971;23;20008;-75
2022/01/28 07:39:11;;;;;;;27.30;4.55;;;3.90;99.90;;;;;;6178198;23;20516;-75
2022/01/28 07:46:08;;;;;;;29.40;4.43;;;3.90;99.90;;;;;;6297955;22;20101;-75
2022/01/28 07:56:14;;;;;;;28.00;4.72;;;3.80;99.90;;;;;;6298141;22;20082;-74
2022/01/28 07:59:51;;;;;;;25.15;4.03;;;3.80;99.90;;;;;;6298575;22;20086;-75
2022/01/28 08:03:22;;;;;;;40.38;4.97;;;3.80;99.90;;;;;;6302514;22;20076;-75
2022/01/28 08:06:26;;;;;;;30.08;4.20;;;3.90;99.90;;;;;;6203688;23;20083;-75
2022/01/28 08:13:35;;;;;;;;;;;4.10;99.90;;;;;;6201471;22;20470;-74
2022/01/28 08:18:55;;;;;;;27.33;4.85;;;4.10;99.90;;;;;;6284710;22;20072;-76
2022/01/28 08:21:21;;;;;;;27.33;7.22;;;4.10;99.90;;;;;;6303088;22;20196;-76
2022/01/28 08:23:47;;;;;;;32.60;9.38;;;4.10;99.90;;;;;;6301292;22;20023;-76
2022/01/28 08:26:13;;;;;;;27.90;5.60;;;4.20;99.90;;;;;;6303831;22;20011;-76
2022/01/28 08:28:41;;;;;;;32.97;4.47;;;4.10;99.90;;;;;;6300713;22;20011;-76
2022/01/28 08:31:08;;;;;;;25.33;5.45;;;4.10;99.90;;;;;;6301233;22;20022;-75
2022/01/28 08:33:34;;;;;;;45.33;20.40;;;4.10;99.90;;;;;;6275509;22;20136;-76
2022/01/28 08:36:01;;;;;;;25.70;5.40;;;4.10;99.90;;;;;;6301489;22;20053;-76
2022/01/28 08:38:35;;;;;;;32.70;5.22;;;4.10;99.90;;;;;;6302531;22;20454;-76
2022/01/28 08:41:00;;;;;;;26.65;4.22;;;4.10;99.90;;;;;;6301658;22;20388;-76
2022/01/28 08:43:27;;;;;;;29.08;7.22;;;4.00;99.90;;;;;;6304264;22;20083;-75
2022/01/28 08:45:53;;;;;;;31.92;4.18;;;4.00;99.90;;;;;;6305021;22;20011;-75
2022/01/28 08:48:19;;;;;;;24.00;4.22;;;4.00;99.90;;;;;;6305688;22;20017;-75
2022/01/28 08:50:45;;;;;;;25.40;4.85;;;4.00;99.90;;;;;;6306123;22;20015;-75
2022/01/28 08:53:11;;;;;;;33.05;4.75;;;4.00;99.90;;;;;;6306568;22;20019;-75
2022/01/28 08:55:38;;;;;;;27.67;4.18;;;4.00;99.90;;;;;;6306617;22;20019;-75
2022/01/28 08:58:05;;;;;;;33.75;4.88;;;4.10;99.90;;;;;;6306026;22;20375;-75
2022/01/28 09:00:30;;;;;;;28.92;4.47;;;4.20;99.90;;;;;;6306433;22;20022;-75
2022/01/28 09:02:56;;;;;;;28.35;4.20;;;4.20;99.90;;;;;;6305389;22;20019;-75
2022/01/28 09:05:22;;;;;;;25.80;4.32;;;4.40;99.90;;;;;;6307064;22;20013;-75
2022/01/28 09:07:48;;;;;;;25.98;4.28;;;4.40;99.90;;;;;;6305809;22;20006;-75
2022/01/28 09:10:25;;;;;;;26.95;4.18;;;4.50;99.90;;;;;;6279128;22;20010;-75
2022/01/28 09:15:38;;;;;;;34.95;4.93;;;4.60;99.90;;;;;;6306197;22;20018;-75
2022/01/28 09:18:04;;;;;;;26.70;4.75;;;4.70;99.90;;;;;;6279650;22;20474;-75
2022/01/28 09:20:31;;;;;;;30.95;4.43;;;4.80;99.90;;;;;;6279936;22;20006;-75
2022/01/28 09:22:58;;;;;;;33.35;4.90;;;5.00;99.90;;;;;;6279703;22;20015;-76
2022/01/28 09:25:25;;;;;;;25.80;4.68;;;5.00;99.90;;;;;;6306157;22;20014;-75
2022/01/28 09:27:51;;;;;;;20.95;3.92;;;5.10;99.90;;;;;;6254184;22;20422;-76
2022/01/28 09:30:16;;;;;;;28.95;4.32;;;5.10;99.90;;;;;;6280222;22;20015;-76
2022/01/28 09:32:42;;;;;;;26.83;4.90;;;5.10;99.90;;;;;;6306003;22;20014;-75
2022/01/28 09:35:08;;;;;;;23.33;4.38;;;5.10;99.90;;;;;;6305710;22;20011;-76
2022/01/28 09:37:34;;;;;;;34.35;13.57;;;5.10;99.90;;;;;;6304979;22;20010;-76
2022/01/28 09:40:00;;;;;;;29.58;5.30;;;5.10;99.90;;;;;;6305509;22;20446;-75
2022/01/28 09:42:30;;;;;;;29.45;5.05;;;5.20;99.90;;;;;;6279490;22;20042;-75
2022/01/28 09:44:58;;;;;;;33.15;5.40;;;5.20;99.90;;;;;;6305329;22;20033;-76
2022/01/28 09:47:24;;;;;;;28.23;5.63;;;5.30;99.90;;;;;;6305782;22;20026;-76
2022/01/28 09:49:51;;;;;;;31.67;4.65;;;5.40;99.90;;;;;;6304949;22;20019;-76
2022/01/28 09:52:18;;;;;;;28.83;5.22;;;5.40;99.90;;;;;;6278220;22;20316;-76
2022/01/28 09:54:46;;;;;;;29.13;4.35;;;5.50;99.90;;;;;;6303353;22;20450;-75
2022/01/28 09:57:16;;;;;;;25.27;4.97;;;5.50;99.90;;;;;;6302538;22;20015;-75
2022/01/28 09:59:41;;;;;;;30.38;5.28;;;5.50;99.90;;;;;;6276867;22;20083;-75
2022/01/28 10:02:08;;;;;;;25.02;4.60;;;5.50;99.90;;;;;;6302827;22;20111;-75
2022/01/28 10:04:33;;;;;;;25.65;4.22;;;5.50;99.90;;;;;;6303505;22;20042;-75
2022/01/28 10:07:09;;;;;;;26.90;4.07;;;5.50;99.90;;;;;;6303029;22;20438;-75
2022/01/28 10:09:35;;;;;;;23.58;4.75;;;5.50;99.90;;;;;;6302412;22;20010;-75
2022/01/28 10:12:17;;;;;;;28.58;4.60;;;5.60;99.90;;;;;;6303420;22;20064;-75
2022/01/28 10:15:15;;;;;;;23.38;4.55;;;5.60;99.90;;;;;;6302737;22;20068;-75
2022/01/28 10:17:55;;;;;;;26.60;4.30;;;5.70;99.90;;;;;;6277290;22;20019;-76
2022/01/28 10:20:23;;;;;;;26.80;4.18;;;5.80;99.90;;;;;;6301748;22;20025;-76
2022/01/28 10:22:54;;;;;;;34.00;5.35;;;5.80;99.90;;;;;;6305436;22;20011;-74
2022/01/28 10:25:27;;;;;;;26.65;6.53;;;5.90;99.90;;;;;;6303501;22;20534;-75
2022/01/28 10:28:05;;;;;;;39.55;8.60;;;5.90;99.90;;;;;;6304664;22;20007;-75
2022/01/28 10:30:36;;;;;;;42.58;13.65;;;5.90;99.90;;;;;;6305866;22;20473;-76
2022/01/28 10:33:55;;;;;;;31.85;6.28;;;6.00;99.90;;;;;;6293616;22;20470;-76
2022/01/28 10:37:14;;;;;;;47.88;15.00;;;6.00;99.90;;;;;;6282718;22;20077;-76
2022/01/28 10:39:57;;;;;;;32.38;5.40;;;6.20;99.90;;;;;;6289103;22;20435;-76
2022/01/28 10:42:28;;;;;;;28.38;5.03;;;6.20;99.90;;;;;;6296809;22;20536;-76
2022/01/28 10:44:58;;;;;;;25.83;5.00;;;6.20;99.90;;;;;;6297546;22;20015;-76
2022/01/28 10:47:31;;;;;;;34.75;5.45;;;6.40;99.90;;;;;;6297081;22;20439;-75
2022/01/28 10:49:57;;;;;;;24.58;4.90;;;6.40;99.90;;;;;;6296562;22;20011;-76
2022/01/28 10:52:33;;;;;;;26.83;4.32;;;6.50;99.90;;;;;;6270785;22;20514;-76
2022/01/28 10:55:00;;;;;;;27.13;4.47;;;6.50;99.90;;;;;;6299411;22;20530;-75
2022/01/28 10:57:29;;;;;;;25.08;5.00;;;6.50;99.90;;;;;;6299420;22;20505;-76
2022/01/28 10:59:56;;;;;;;25.10;4.97;;;6.70;99.90;;;;;;6299302;22;20386;-76
2022/01/28 11:02:27;;;;;;;29.20;5.53;;;6.70;99.90;;;;;;6299394;22;20038;-75
2022/01/28 11:04:55;;;;;;;30.70;7.35;;;6.80;99.90;;;;;;6298263;22;20482;-75
2022/01/28 11:07:21;;;;;;;41.85;13.73;;;6.90;99.90;;;;;;6298745;22;20011;-76
2022/01/28 11:09:48;;;;;;;29.48;5.38;;;6.90;99.90;;;;;;6299470;22;20071;-75
2022/01/28 11:12:14;;;;;;;32.58;5.53;;;6.90;99.90;;;;;;6297459;22;20018;-76
2022/01/28 11:14:42;;;;;;;34.25;5.05;;;7.00;99.90;;;;;;6297702;22;20016;-76
2022/01/28 11:17:10;;;;;;;29.35;10.20;;;7.10;99.90;;;;;;6298162;22;20098;-76
2022/01/28 11:19:38;;;;;;;39.97;11.02;;;7.10;99.90;;;;;;6271934;22;20410;-75
2022/01/28 11:22:16;;;;;;;22.35;4.28;;;7.30;99.90;;;;;;6299687;22;20015;-75
2022/01/28 11:24:47;;;;;;;31.10;6.55;;;7.30;99.90;;;;;;6296924;22;20347;-75
2022/01/28 11:27:34;;;;;;;26.30;4.37;;;7.20;99.90;;;;;;6273213;22;20022;-75
2022/01/28 11:30:25;;;;;;;27.88;4.60;;;7.30;99.90;;;;;;6298611;22;20465;-76
2022/01/28 11:32:59;;;;;;;26.08;4.88;;;7.20;99.90;;;;;;6299350;22;20462;-75
2022/01/28 11:35:27;;;;;;;28.58;4.75;;;7.20;99.90;;;;;;6298565;22;20386;-75
2022/01/28 11:37:56;;;;;;;26.15;4.93;;;7.20;99.90;;;;;;6298202;22;20015;-75
2022/01/28 11:40:23;;;;;;;28.88;5.00;;;7.20;99.90;;;;;;6295841;22;20335;-74
2022/01/28 11:42:48;;;;;;;34.50;6.85;;;7.40;99.90;;;;;;6297911;22;20398;-75
2022/01/28 11:45:14;;;;;;;29.92;5.57;;;7.70;99.90;;;;;;6298457;22;20039;-76
2022/01/28 11:48:06;;;;;;;27.30;4.95;;;7.90;99.90;;;;;;6298475;22;20073;-75
2022/01/28 11:50:32;;;;;;;24.27;4.50;;;8.10;99.90;;;;;;6289878;22;20501;-75
2022/01/28 11:52:58;;;;;;;26.73;4.38;;;8.00;99.90;;;;;;6298361;22;20023;-74
2022/01/28 11:55:26;;;;;;;26.17;4.55;;;8.00;99.90;;;;;;6271772;22;20733;-75
2022/01/28 11:58:01;;;;;;;27.40;4.75;;;7.80;99.90;;;;;;6298755;22;20496;-75
2022/01/28 12:00:37;;;;;;;24.58;4.10;;;7.70;99.90;;;;;;6297022;22;20456;-75
2022/01/28 12:03:18;;;;;;;32.63;4.53;;;7.60;99.90;;;;;;6298098;22;20052;-75
2022/01/28 12:05:44;;;;;;;28.60;4.63;;;7.50;99.90;;;;;;6298136;22;20065;-75
2022/01/28 12:08:14;;;;;;;24.65;3.97;;;7.50;99.90;;;;;;6297825;22;20446;-75
2022/01/28 12:10:44;;;;;;;20.75;4.07;;;7.50;99.90;;;;;;6301753;22;20046;-74
2022/01/28 12:13:13;;;;;;;25.13;4.75;;;7.50;99.90;;;;;;6299931;22;20011;-75
2022/01/28 12:16:13;;;;;;;28.15;4.38;;;7.40;99.90;;;;;;6303334;22;20737;-74
2022/01/28 12:18:45;;;;;;;24.83;4.22;;;7.40;99.90;;;;;;6275585;22;20037;-74
2022/01/28 12:21:16;;;;;;;21.83;3.43;;;7.50;99.90;;;;;;6274985;22;20086;-75
2022/01/28 12:23:44;;;;;;;25.50;3.75;;;7.50;99.90;;;;;;6301996;22;20728;-75
2022/01/28 12:26:16;;;;;;;26.27;4.30;;;7.50;99.90;;;;;;6301148;22;20550;-74
2022/01/28 12:28:44;;;;;;;24.35;3.95;;;7.70;99.90;;;;;;6302559;22;20035;-74
2022/01/28 12:31:25;;;;;;;24.00;4.47;;;7.80;99.90;;;;;;6303415;22;20084;-74
2022/01/28 12:33:54;;;;;;;28.23;4.18;;;8.10;99.90;;;;;;6303298;22;20008;-74
2022/01/28 12:36:37;;;;;;;23.40;4.22;;;8.30;99.90;;;;;;6302070;22;20018;-74
2022/01/28 12:39:14;;;;;;;21.85;3.80;;;8.50;99.90;;;;;;6303126;22;20082;-74
2022/01/28 12:41:52;;;;;;;27.13;4.10;;;8.80;99.90;;;;;;6301986;22;20016;-74
2022/01/28 12:44:18;;;;;;;22.38;3.92;;;9.10;99.90;;;;;;6300883;22;20011;-75
2022/01/28 12:46:59;;;;;;;20.27;3.83;;;9.30;99.90;;;;;;6300620;22;20022;-75
2022/01/28 12:49:27;;;;;;;19.88;3.47;;;9.40;99.90;;;;;;6298279;22;20094;-74
2022/01/28 12:51:55;;;;;;;21.90;3.92;;;9.50;99.90;;;;;;6299068;22;20072;-74
2022/01/28 12:54:41;;;;;;;25.15;4.30;;;9.40;99.90;;;;;;6299122;22;20022;-74
2022/01/28 12:57:09;;;;;;;27.05;3.88;;;9.10;99.90;;;;;;6300206;22;20069;-74
2022/01/28 12:59:35;;;;;;;24.15;3.60;;;9.20;99.90;;;;;;6299131;22;20019;-74
2022/01/28 13:02:01;;;;;;;25.77;4.15;;;9.40;99.90;;;;;;6273214;22;20015;-75
2022/01/28 13:04:49;;;;;;;20.15;3.63;;;9.60;99.90;;;;;;6299549;22;20774;-75
2022/01/28 13:09:57;;;;;;;24.48;3.70;;;10.00;99.70;;;;;;6300041;22;20042;-75
2022/01/28 13:12:24;;;;;;;21.98;3.65;;;10.10;99.50;;;;;;6300334;22;20015;-74
2022/01/28 13:14:50;;;;;;;21.02;3.78;;;10.10;99.30;;;;;;6299602;22;20080;-74
2022/01/28 13:17:21;;;;;;;25.13;4.38;;;10.00;99.20;;;;;;6300376;22;20058;-74
2022/01/28 13:19:57;;;;;;;22.00;4.35;;;9.90;99.10;;;;;;6276041;22;20382;-74
2022/01/28 13:22:25;;;;;;;23.65;4.93;;;9.70;99.30;;;;;;6302163;22;20011;-74
2022/01/28 13:24:52;;;;;;;20.90;4.13;;;9.60;99.40;;;;;;6300735;22;20003;-74
2022/01/28 13:27:19;;;;;;;24.38;3.97;;;9.40;99.10;;;;;;6300945;22;20320;-74
2022/01/28 13:29:49;;;;;;;20.83;4.32;;;9.20;99.30;;;;;;6301440;22;20011;-74
2022/01/28 13:32:27;;;;;;;25.13;3.67;;;8.90;99.10;;;;;;6301442;22;20098;-74
2022/01/28 13:34:58;;;;;;;20.33;4.65;;;8.80;99.90;;;;;;6300429;22;20018;-74
2022/01/28 13:37:40;;;;;;;26.65;4.43;;;8.50;99.90;;;;;;6275279;22;20015;-74
2022/01/28 13:40:18;;;;;;;28.13;4.18;;;8.20;99.90;;;;;;6274169;22;20015;-75
2022/01/28 13:43:19;;;;;;;18.73;3.85;;;8.10;99.90;;;;;;6300999;22;20018;-75
2022/01/28 13:45:56;;;;;;;22.73;3.90;;;7.90;99.90;;;;;;6300493;22;20072;-74
2022/01/28 13:48:40;;;;;;;23.98;4.97;;;7.90;99.90;;;;;;6301249;22;20011;-74
2022/01/28 13:51:19;;;;;;;26.30;4.60;;;7.80;99.90;;;;;;6299647;22;20019;-75
2022/01/28 13:56:37;;;;;;;23.25;4.15;;;7.70;99.90;;;;;;6301935;22;20053;-75
2022/01/28 13:59:25;;;;;;;19.75;4.13;;;7.60;99.90;;;;;;6301140;22;20141;-75
2022/01/28 14:01:52;;;;;;;21.83;3.83;;;7.70;99.90;;;;;;6301616;22;20495;-75
2022/01/28 14:04:23;;;;;;;25.65;3.83;;;7.80;99.90;;;;;;6300236;22;20026;-75
2022/01/28 14:06:49;;;;;;;18.67;3.58;;;8.10;99.90;;;;;;6300766;22;20438;-75
2022/01/28 14:09:19;;;;;;;18.15;3.60;;;8.70;99.90;;;;;;6300932;22;20022;-75
2022/01/28 14:11:52;;;;;;;21.45;3.90;;;9.10;99.90;;;;;;6301548;22;20050;-75
2022/01/28 14:14:30;;;;;;;21.58;3.60;;;9.50;99.90;;;;;;6273866;22;20022;-75
2022/01/28 14:17:01;;;;;;;22.25;3.70;;;9.60;99.90;;;;;;6299649;22;20011;-75
2022/01/28 14:19:29;;;;;;;19.05;3.22;;;9.60;99.90;;;;;;6298699;22;20061;-75
2022/01/28 14:21:56;;;;;;;16.90;3.75;;;9.30;99.90;;;;;;6299631;22;20015;-75
2022/01/28 14:24:26;;;;;;;22.27;3.65;;;9.30;99.90;;;;;;6300165;22;20004;-75
2022/01/28 14:27:11;;;;;;;26.15;4.05;;;9.10;99.90;;;;;;6274371;22;20003;-75
2022/01/28 14:32:11;;;;;;;17.55;3.75;;;9.00;99.90;;;;;;6273959;22;20019;-75
2022/01/28 14:34:38;;;;;;;17.75;3.22;;;8.90;99.90;;;;;;6299893;22;20098;-75
2022/01/28 14:37:05;;;;;;;23.77;4.07;;;8.90;99.90;;;;;;6299934;22;20015;-75
2022/01/28 14:39:36;;;;;;;22.38;3.22;;;8.80;99.90;;;;;;6272092;22;20049;-75
2022/01/28 14:42:03;;;;;;;19.38;3.92;;;8.70;99.90;;;;;;6297413;22;20030;-75
2022/01/28 14:44:30;;;;;;;14.10;2.90;;;8.60;99.90;;;;;;6271187;22;20015;-75
2022/01/28 14:46:56;;;;;;;24.70;3.80;;;8.60;99.90;;;;;;6296462;22;20114;-75
2022/01/28 14:49:22;;;;;;;22.73;3.42;;;8.50;99.90;;;;;;6296912;22;20014;-75
2022/01/28 14:51:54;;;;;;;24.13;3.58;;;8.40;99.90;;;;;;6297459;22;20714;-75
2022/01/28 14:54:26;;;;;;;17.02;3.33;;;8.20;99.90;;;;;;6299193;22;20092;-74
2022/01/28 14:56:55;;;;;;;21.83;3.60;;;8.10;99.90;;;;;;6300183;22;20068;-74
2022/01/28 14:59:21;;;;;;;17.67;3.45;;;8.00;99.90;;;;;;6299398;22;20018;-74
2022/01/28 15:01:47;;;;;;;16.63;2.65;;;7.90;99.90;;;;;;6299219;22;20057;-74
2022/01/28 15:04:13;;;;;;;18.75;3.05;;;7.80;99.90;;;;;;6298760;22;20049;-74
2022/01/28 15:06:40;;;;;;;19.83;3.30;;;7.70;99.90;;;;;;6299080;22;20015;-75
2022/01/28 15:09:06;;;;;;;20.52;3.13;;;7.60;99.90;;;;;;6273672;22;20011;-74
2022/01/28 15:11:43;;;;;;;20.17;3.20;;;7.50;99.90;;;;;;6299164;22;20060;-74
2022/01/28 15:14:09;;;;;;;18.50;4.30;;;7.50;99.90;;;;;;6299354;22;20007;-74
2022/01/28 15:16:35;;;;;;;20.90;3.33;;;7.40;99.90;;;;;;6298991;22;20022;-74
2022/01/28 15:19:01;;;;;;;21.73;3.28;;;7.30;99.90;;;;;;6273424;22;20637;-74
2022/01/28 15:21:26;;;;;;;23.40;3.67;;;7.30;99.90;;;;;;6273456;22;20358;-74
2022/01/28 15:23:52;;;;;;;20.60;3.33;;;7.30;99.90;;;;;;6297952;22;20007;-74
2022/01/28 15:26:18;;;;;;;18.35;2.88;;;7.20;99.90;;;;;;6298939;22;20374;-74
2022/01/28 15:29:01;;;;;;;18.73;3.38;;;7.20;99.90;;;;;;6299366;22;20601;-74
2022/01/28 15:36:38;;;;;;;20.27;3.47;;;7.00;99.90;;;;;;6298454;22;20371;-74
2022/01/28 15:39:04;;;;;;;22.92;3.08;;;7.00;99.90;;;;;;6298629;22;20317;-74
2022/01/28 15:41:29;;;;;;;18.98;3.25;;;7.00;99.90;;;;;;6298438;22;20324;-74
2022/01/28 15:43:55;;;;;;;14.95;3.00;;;6.90;99.90;;;;;;6298878;22;20019;-74
2022/01/28 15:46:21;;;;;;;20.25;3.40;;;6.90;99.90;;;;;;6298902;22;20015;-74
2022/01/28 15:48:46;;;;;;;18.50;3.20;;;6.90;99.90;;;;;;6273739;22;20093;-74